• Join FlightAware (Why Join?)
  • Login
  • US Flag 
02:57PM EDT


 

Airport Tracker/Info


-or-


 

Live Flight TrackerFlight Track Log ✈ ASQ421T ✈ 10-Jun-2013 ✈ KIAH - KDAL

Flight Track Log - Related Links

Times and Time Zones

All times are in EDT time to prevent confusion due to time zone crossing. See the ASQ421T flight status page for this flight to view local times or setup timezone preferences in your user account.

Time Position Orientation Groundspeed Altitude Reporting Facility
EDT Latitude Longitude Course Direction KTS MPH feet Rate Location/Type
10:39PM 29.9944 -95.3564 316° Northwest 121 139 700  Level Houston Center
10:40PM 30.0294 -95.3958 316° Northwest 241 277 2,500 1,740 Climbing Houston Center
10:40PM 30.0561 -95.4042 345° North 239 275 3,100 1,620 Climbing Houston Center
10:41PM 30.1264 -95.4347 339° North 262 302 4,900 960 Climbing Houston Center
10:42PM 30.1967 -95.4722 335° Northwest 274 315 5,100 1,200 Climbing Houston Center
10:43PM 30.2683 -95.5103 335° Northwest 280 322 7,400 2,220 Climbing Houston Center
10:44PM 30.3403 -95.5483 335° Northwest 284 327 9,700 1,620 Climbing Houston Center
10:45PM 30.4181 -95.5906 335° Northwest 298 343 10,800 1,080 Climbing Houston Center
10:46PM 30.5081 -95.6381 336° Northwest 351 404 12,000 1,200 Climbing Houston Center
10:47PM 30.6003 -95.6864 336° Northwest 363 418 13,300 960 Climbing Houston Center
10:48PM 30.7119 -95.7461 335° Northwest 370 426 14,000 300 Climbing Houston Center
10:49PM 30.8114 -95.8000 335° Northwest 382 440 14,000  Level Houston Center
10:50PM 30.9119 -95.8542 335° Northwest 393 452 14,000  Level Houston Center
10:51PM 31.0122 -95.9064 336° Northwest 393 452 14,000  Level Houston Center
10:52PM 31.1106 -95.9600 335° Northwest 390 449 14,000  Level Houston Center
10:54PM 31.2158 -95.9881 347° North 389 448 14,000  Level Houston Center
10:55PM 31.3208 -96.0131 349° North 385 443 14,000  Level Houston Center
10:56PM 31.4269 -96.0375 349° North 384 442 14,000  Level Houston Center
10:57PM 31.5319 -96.0650 347° North 384 442 14,000  Level Houston Center
10:58PM 31.6364 -96.1006 344° North 384 442 14,000  Level Houston Center
10:58PM 31.7286 -96.1311 344° North 379 436 14,000  Level Fort Worth Center
10:59PM 31.8314 -96.1711 342° North 387 445 14,000  Level Fort Worth Center
11:00PM 31.9339 -96.1992 347° North 382 440 14,000  Level Fort Worth Center
11:01PM 32.0347 -96.2369 342° North 382 440 14,000 -660 Level Fort Worth Center
11:02PM 32.1394 -96.2725 344° North 382 440 12,700 -1,380 Descending Fort Worth Center
11:03PM 32.2294 -96.3008 345° North 376 433 11,300 -1,380 Descending Fort Worth Center
11:04PM 32.3214 -96.3317 344° North 330 380 10,000 -1,140 Descending Fort Worth Center
11:05PM 32.3947 -96.3556 345° North 303 349 9,100 -600 Descending Fort Worth Center
11:06PM 32.4786 -96.3964 338° Northwest 296 341 8,800 -660 Descending Fort Worth Center
11:07PM 32.5456 -96.4375 333° Northwest 296 341 7,800 -1,200 Descending Fort Worth Center
11:08PM 32.6233 -96.4836 333° Northwest 289 333 6,500 -1,140 Descending Fort Worth Center
11:09PM 32.6861 -96.5247 331° Northwest 289 333 5,600 -780 Descending Fort Worth Center
11:10PM 32.7472 -96.5908 318° Northwest 275 316 5,000 -720 Descending Fort Worth Center
11:11PM 32.7997 -96.6447 319° Northwest 270 311 4,200 -960 Descending Fort Worth Center
11:12PM 32.8628 -96.7111 319° Northwest 270 311 3,100 -600 Descending Fort Worth Center
11:13PM 32.9131 -96.7600 321° Northwest 264 304 3,000 -120 Descending Fort Worth Center
11:14PM 32.9447 -96.8292 299° West 256 295 2,900 -540 Descending Fort Worth Center
11:15PM 32.9242 -96.8764 243° Southwest 157 181 2,000 -720 Descending Fort Worth Center
11:16PM 32.8928 -96.8939 205° Southwest 141 162 1,500 -600 Descending Fort Worth Center
11:17PM 32.8667 -96.8667 139° Southeast 114 131 800 -720 Descending Dallas / Fort Worth TRACON
11:19PM 32.8471 -96.8518 196° South  Level Estimated
11:26PM 32.8471 -96.8518 196° South  Level Estimated